LFBA/AGF METAR and TAF weather

Enter ICAO airport designator
Station Type Date Time Source
LFBA METAR 2020/09/24 12:00 UTC NOAA

LFBA 241200Z AUTO 25006KT 210V280 9999 FEW013 BKN031 BKN040 18/16 Q1011 TEMPO 4000 SHRA BKN010 BKN030TCU


Station Type Date Time Source
LFBA Decoded METAR 2020/09/24 12:00 UTC NOAA

Agen, France (LFBA) 44-11N 000-36E 60M
Sep 24, 2020 - 08:00 AM EDT / 2020.09.24 1200 UTC
Wind: from the WSW (250 degrees) at 7 MPH (6 KT) (direction variable):0
Visibility: greater than 7 mile(s):0
Sky conditions: mostly cloudy
Weather: Towering cumulus clouds observed
Temperature: 64 F (18 C)
Dew Point: 60 F (16 C)
Relative Humidity: 88%
Pressure (altimeter): 29.85 in. Hg (1011 hPa)
ob: LFBA 241200Z AUTO 25006KT 210V280 9999 FEW013 BKN031 BKN040 18/16 Q1011 TEMPO 4000 SHRA BKN010 BKN030TCU
cycle: 12

Station Type Date Time Source
LFBA TAF 2014/12/22 20:03 UTC NOAA

TAF
AMD TAF
AMD LFBA 222037Z 2220/2224 12007KT 0400 FG VV///
TEMPO 2220/2224 0100 PROB30
TEMPO 2222/2224 FZFG

Example: see airport list